sensor_id;sensor_type;location;lat;lon;timestamp;temperature;humidity
1107;DHT22;540;49.448;8.612;2023-09-08T00:00:17;22.30;65.60
1107;DHT22;540;49.448;8.612;2023-09-08T00:02:45;22.50;66.30
1107;DHT22;540;49.448;8.612;2023-09-08T00:05:14;22.20;66.60
1107;DHT22;540;49.448;8.612;2023-09-08T00:07:42;22.20;66.90
1107;DHT22;540;49.448;8.612;2023-09-08T00:10:10;22.10;67.10
1107;DHT22;540;49.448;8.612;2023-09-08T00:12:39;22.20;67.60
1107;DHT22;540;49.448;8.612;2023-09-08T00:15:07;22.00;67.80
1107;DHT22;540;49.448;8.612;2023-09-08T00:17:36;22.00;68.40
1107;DHT22;540;49.448;8.612;2023-09-08T00:20:06;22.00;69.00
1107;DHT22;540;49.448;8.612;2023-09-08T00:22:37;21.90;69.10
1107;DHT22;540;49.448;8.612;2023-09-08T00:25:06;21.90;69.30
1107;DHT22;540;49.448;8.612;2023-09-08T00:27:34;21.90;70.00
1107;DHT22;540;49.448;8.612;2023-09-08T00:30:02;21.80;70.10
1107;DHT22;540;49.448;8.612;2023-09-08T00:32:30;21.70;70.70
1107;DHT22;540;49.448;8.612;2023-09-08T00:34:59;21.70;71.40
1107;DHT22;540;49.448;8.612;2023-09-08T00:37:27;21.60;71.90
1107;DHT22;540;49.448;8.612;2023-09-08T00:39:56;21.60;72.50
1107;DHT22;540;49.448;8.612;2023-09-08T00:42:24;21.50;73.00
1107;DHT22;540;49.448;8.612;2023-09-08T00:44:52;21.40;73.70
1107;DHT22;540;49.448;8.612;2023-09-08T00:47:20;21.40;74.20
1107;DHT22;540;49.448;8.612;2023-09-08T00:49:48;21.40;74.40
1107;DHT22;540;49.448;8.612;2023-09-08T00:52:17;21.40;74.40
1107;DHT22;540;49.448;8.612;2023-09-08T00:54:46;21.40;74.60
1107;DHT22;540;49.448;8.612;2023-09-08T00:57:15;20.90;75.00
1107;DHT22;540;49.448;8.612;2023-09-08T00:59:44;21.30;74.50
1107;DHT22;540;49.448;8.612;2023-09-08T01:02:12;21.30;74.90
1107;DHT22;540;49.448;8.612;2023-09-08T01:04:40;21.30;75.10
1107;DHT22;540;49.448;8.612;2023-09-08T01:07:09;21.30;74.90
1107;DHT22;540;49.448;8.612;2023-09-08T01:09:38;21.20;75.10
1107;DHT22;540;49.448;8.612;2023-09-08T01:12:07;21.20;75.50
1107;DHT22;540;49.448;8.612;2023-09-08T01:14:37;21.20;75.80
1107;DHT22;540;49.448;8.612;2023-09-08T01:17:05;20.80;75.90
1107;DHT22;540;49.448;8.612;2023-09-08T01:19:33;21.00;77.30
1107;DHT22;540;49.448;8.612;2023-09-08T01:22:17;20.90;77.70
1107;DHT22;540;49.448;8.612;2023-09-08T01:25:18;21.00;77.80
1107;DHT22;540;49.448;8.612;2023-09-08T01:27:49;21.00;78.30
1107;DHT22;540;49.448;8.612;2023-09-08T01:30:18;20.60;78.20
1107;DHT22;540;49.448;8.612;2023-09-08T01:32:46;20.40;79.80
1107;DHT22;540;49.448;8.612;2023-09-08T01:35:14;20.30;80.00
1107;DHT22;540;49.448;8.612;2023-09-08T01:37:45;20.80;81.00
1107;DHT22;540;49.448;8.612;2023-09-08T01:40:15;20.50;81.60
1107;DHT22;540;49.448;8.612;2023-09-08T01:42:44;20.30;85.80
1107;DHT22;540;49.448;8.612;2023-09-08T01:45:12;20.60;90.00
1107;DHT22;540;49.448;8.612;2023-09-08T01:47:40;20.60;90.90
1107;DHT22;540;49.448;8.612;2023-09-08T01:50:09;20.30;90.60
1107;DHT22;540;49.448;8.612;2023-09-08T01:52:37;20.00;90.20
1107;DHT22;540;49.448;8.612;2023-09-08T01:55:07;20.00;89.50
1107;DHT22;540;49.448;8.612;2023-09-08T01:57:36;20.30;89.00
1107;DHT22;540;49.448;8.612;2023-09-08T02:00:05;20.50;88.30
1107;DHT22;540;49.448;8.612;2023-09-08T02:02:33;20.60;87.40
1107;DHT22;540;49.448;8.612;2023-09-08T02:05:01;20.10;86.20
1107;DHT22;540;49.448;8.612;2023-09-08T02:07:30;20.20;86.60
1107;DHT22;540;49.448;8.612;2023-09-08T02:09:58;20.30;86.80
1107;DHT22;540;49.448;8.612;2023-09-08T02:12:26;20.40;87.20
1107;DHT22;540;49.448;8.612;2023-09-08T02:14:55;20.20;88.60
1107;DHT22;540;49.448;8.612;2023-09-08T02:17:24;20.20;88.90
1107;DHT22;540;49.448;8.612;2023-09-08T02:19:51;20.10;89.00
1107;DHT22;540;49.448;8.612;2023-09-08T02:22:19;20.20;89.90
1107;DHT22;540;49.448;8.612;2023-09-08T02:24:47;20.10;89.90
1107;DHT22;540;49.448;8.612;2023-09-08T02:27:16;20.30;89.40
1107;DHT22;540;49.448;8.612;2023-09-08T02:29:44;19.70;88.90
1107;DHT22;540;49.448;8.612;2023-09-08T02:32:13;20.20;89.50
1107;DHT22;540;49.448;8.612;2023-09-08T02:34:41;19.90;88.90
1107;DHT22;540;49.448;8.612;2023-09-08T02:37:10;20.00;89.90
1107;DHT22;540;49.448;8.612;2023-09-08T02:39:38;20.00;90.20
1107;DHT22;540;49.448;8.612;2023-09-08T02:42:06;20.30;90.50
1107;DHT22;540;49.448;8.612;2023-09-08T02:44:34;19.80;90.20
1107;DHT22;540;49.448;8.612;2023-09-08T02:47:02;19.90;90.20
1107;DHT22;540;49.448;8.612;2023-09-08T02:49:31;19.90;90.40
1107;DHT22;540;49.448;8.612;2023-09-08T02:51:59;20.00;90.70
1107;DHT22;540;49.448;8.612;2023-09-08T02:54:27;20.00;91.10
1107;DHT22;540;49.448;8.612;2023-09-08T02:56:55;19.90;91.10
1107;DHT22;540;49.448;8.612;2023-09-08T02:59:23;19.90;91.30
1107;DHT22;540;49.448;8.612;2023-09-08T03:01:51;19.70;91.80
1107;DHT22;540;49.448;8.612;2023-09-08T03:04:19;19.30;92.50
1107;DHT22;540;49.448;8.612;2023-09-08T03:06:49;19.70;94.30
1107;DHT22;540;49.448;8.612;2023-09-08T03:09:17;19.50;95.20
1107;DHT22;540;49.448;8.612;2023-09-08T03:11:44;19.30;95.70
1107;DHT22;540;49.448;8.612;2023-09-08T03:14:12;19.10;96.10
1107;DHT22;540;49.448;8.612;2023-09-08T03:16:40;18.70;95.50
1107;DHT22;540;49.448;8.612;2023-09-08T03:19:09;19.00;95.50
1107;DHT22;540;49.448;8.612;2023-09-08T03:21:37;18.60;95.70
1107;DHT22;540;49.448;8.612;2023-09-08T03:24:07;19.00;96.10
1107;DHT22;540;49.448;8.612;2023-09-08T03:26:35;19.20;95.80
1107;DHT22;540;49.448;8.612;2023-09-08T03:29:03;19.30;95.40
1107;DHT22;540;49.448;8.612;2023-09-08T03:31:31;18.80;95.30
1107;DHT22;540;49.448;8.612;2023-09-08T03:33:59;18.70;96.90
1107;DHT22;540;49.448;8.612;2023-09-08T03:36:27;18.60;98.80
1107;DHT22;540;49.448;8.612;2023-09-08T03:38:55;19.20;99.00
1107;DHT22;540;49.448;8.612;2023-09-08T03:41:26;19.20;98.50
1107;DHT22;540;49.448;8.612;2023-09-08T03:43:54;19.10;97.40
1107;DHT22;540;49.448;8.612;2023-09-08T03:46:23;19.10;97.60
1107;DHT22;540;49.448;8.612;2023-09-08T03:48:52;19.30;97.80
1107;DHT22;540;49.448;8.612;2023-09-08T03:51:25;19.00;97.20
1107;DHT22;540;49.448;8.612;2023-09-08T03:53:53;19.10;97.20
1107;DHT22;540;49.448;8.612;2023-09-08T03:56:21;19.10;96.70
1107;DHT22;540;49.448;8.612;2023-09-08T03:58:50;19.10;96.80
1107;DHT22;540;49.448;8.612;2023-09-08T04:01:18;19.10;96.90
1107;DHT22;540;49.448;8.612;2023-09-08T04:03:46;19.20;97.30
1107;DHT22;540;49.448;8.612;2023-09-08T04:06:14;18.70;97.30
1107;DHT22;540;49.448;8.612;2023-09-08T04:08:42;18.90;98.40
1107;DHT22;540;49.448;8.612;2023-09-08T04:11:11;18.60;98.80
1107;DHT22;540;49.448;8.612;2023-09-08T04:13:39;18.60;99.20
1107;DHT22;540;49.448;8.612;2023-09-08T04:16:08;18.60;99.70
1107;DHT22;540;49.448;8.612;2023-09-08T04:18:37;18.60;99.60
1107;DHT22;540;49.448;8.612;2023-09-08T04:21:06;18.80;99.60
1107;DHT22;540;49.448;8.612;2023-09-08T04:23:35;18.80;99.60
1107;DHT22;540;49.448;8.612;2023-09-08T04:26:03;18.50;99.40
1107;DHT22;540;49.448;8.612;2023-09-08T04:28:31;18.80;99.30
1107;DHT22;540;49.448;8.612;2023-09-08T04:30:59;18.60;99.20
1107;DHT22;540;49.448;8.612;2023-09-08T04:33:29;18.50;99.90
1107;DHT22;540;49.448;8.612;2023-09-08T04:35:57;18.80;99.90
1107;DHT22;540;49.448;8.612;2023-09-08T04:38:25;18.80;99.90
1107;DHT22;540;49.448;8.612;2023-09-08T04:40:53;18.70;99.90
1107;DHT22;540;49.448;8.612;2023-09-08T04:43:21;18.30;99.90
1107;DHT22;540;49.448;8.612;2023-09-08T04:45:49;18.90;99.90
1107;DHT22;540;49.448;8.612;2023-09-08T04:48:18;18.80;99.90
1107;DHT22;540;49.448;8.612;2023-09-08T04:50:47;18.70;99.90
1107;DHT22;540;49.448;8.612;2023-09-08T04:53:15;18.50;99.90
1107;DHT22;540;49.448;8.612;2023-09-08T04:55:44;18.60;99.90
1107;DHT22;540;49.448;8.612;2023-09-08T04:58:12;18.90;99.90
1107;DHT22;540;49.448;8.612;2023-09-08T05:00:40;18.70;99.90
1107;DHT22;540;49.448;8.612;2023-09-08T05:03:07;18.60;99.90
1107;DHT22;540;49.448;8.612;2023-09-08T05:05:35;18.50;99.90
1107;DHT22;540;49.448;8.612;2023-09-08T05:08:05;18.70;99.90
1107;DHT22;540;49.448;8.612;2023-09-08T05:10:33;18.50;99.90
1107;DHT22;540;49.448;8.612;2023-09-08T05:13:02;18.60;99.90
1107;DHT22;540;49.448;8.612;2023-09-08T05:15:35;18.70;99.90
1107;DHT22;540;49.448;8.612;2023-09-08T05:18:04;18.60;99.90
1107;DHT22;540;49.448;8.612;2023-09-08T05:20:33;18.40;99.90
1107;DHT22;540;49.448;8.612;2023-09-08T05:23:01;18.30;99.90
1107;DHT22;540;49.448;8.612;2023-09-08T05:25:30;18.50;99.90
1107;DHT22;540;49.448;8.612;2023-09-08T05:27:58;18.90;99.90
1107;DHT22;540;49.448;8.612;2023-09-08T05:30:27;18.80;99.90
1107;DHT22;540;49.448;8.612;2023-09-08T05:32:55;18.60;99.90
1107;DHT22;540;49.448;8.612;2023-09-08T05:35:26;18.40;99.90
1107;DHT22;540;49.448;8.612;2023-09-08T05:37:54;18.70;99.90
1107;DHT22;540;49.448;8.612;2023-09-08T05:40:22;18.80;99.90
1107;DHT22;540;49.448;8.612;2023-09-08T05:42:52;18.90;99.90
1107;DHT22;540;49.448;8.612;2023-09-08T05:45:21;18.40;99.90
1107;DHT22;540;49.448;8.612;2023-09-08T05:47:49;19.10;99.90
1107;DHT22;540;49.448;8.612;2023-09-08T05:53:29;18.90;99.90
1107;DHT22;540;49.448;8.612;2023-09-08T05:55:57;18.70;99.90
1107;DHT22;540;49.448;8.612;2023-09-08T05:58:27;19.00;99.90
1107;DHT22;540;49.448;8.612;2023-09-08T06:00:55;19.10;99.90
1107;DHT22;540;49.448;8.612;2023-09-08T06:03:23;19.20;99.90
1107;DHT22;540;49.448;8.612;2023-09-08T06:05:51;19.20;99.90
1107;DHT22;540;49.448;8.612;2023-09-08T06:08:19;19.30;99.90
1107;DHT22;540;49.448;8.612;2023-09-08T06:10:47;19.30;99.90
1107;DHT22;540;49.448;8.612;2023-09-08T06:13:16;19.20;99.90
1107;DHT22;540;49.448;8.612;2023-09-08T06:15:45;19.00;99.90
1107;DHT22;540;49.448;8.612;2023-09-08T06:18:13;19.60;99.90
1107;DHT22;540;49.448;8.612;2023-09-08T06:20:45;19.20;99.90
1107;DHT22;540;49.448;8.612;2023-09-08T06:23:14;19.50;99.90
1107;DHT22;540;49.448;8.612;2023-09-08T06:25:42;19.90;99.90
1107;DHT22;540;49.448;8.612;2023-09-08T06:28:10;19.80;98.20
1107;DHT22;540;49.448;8.612;2023-09-08T06:30:38;20.10;97.70
1107;DHT22;540;49.448;8.612;2023-09-08T06:33:10;20.70;95.50
1107;DHT22;540;49.448;8.612;2023-09-08T06:35:38;22.30;90.70
1107;DHT22;540;49.448;8.612;2023-09-08T06:38:06;24.00;78.20
1107;DHT22;540;49.448;8.612;2023-09-08T06:40:34;25.60;69.40
1107;DHT22;540;49.448;8.612;2023-09-08T06:43:03;26.80;62.90
1107;DHT22;540;49.448;8.612;2023-09-08T06:45:31;27.50;58.80
1107;DHT22;540;49.448;8.612;2023-09-08T06:47:59;28.20;56.60
1107;DHT22;540;49.448;8.612;2023-09-08T06:50:29;29.10;54.00
1107;DHT22;540;49.448;8.612;2023-09-08T06:52:57;29.80;51.30
1107;DHT22;540;49.448;8.612;2023-09-08T06:55:25;30.30;49.60
1107;DHT22;540;49.448;8.612;2023-09-08T06:57:53;30.20;49.40
1107;DHT22;540;49.448;8.612;2023-09-08T07:00:21;30.60;48.70
1107;DHT22;540;49.448;8.612;2023-09-08T07:02:49;30.70;48.20
1107;DHT22;540;49.448;8.612;2023-09-08T07:05:18;31.70;46.80
1107;DHT22;540;49.448;8.612;2023-09-08T07:07:50;32.10;45.40
1107;DHT22;540;49.448;8.612;2023-09-08T07:10:19;32.20;44.80
1107;DHT22;540;49.448;8.612;2023-09-08T07:12:48;31.70;44.80
1107;DHT22;540;49.448;8.612;2023-09-08T07:15:16;32.30;44.50
1107;DHT22;540;49.448;8.612;2023-09-08T07:17:44;32.70;43.40
1107;DHT22;540;49.448;8.612;2023-09-08T07:20:12;32.60;43.40
1107;DHT22;540;49.448;8.612;2023-09-08T07:22:40;32.50;43.50
1107;DHT22;540;49.448;8.612;2023-09-08T07:25:10;32.60;43.60
1107;DHT22;540;49.448;8.612;2023-09-08T07:27:38;32.90;43.10
1107;DHT22;540;49.448;8.612;2023-09-08T07:30:07;33.00;42.70
1107;DHT22;540;49.448;8.612;2023-09-08T07:32:35;33.50;41.70
1107;DHT22;540;49.448;8.612;2023-09-08T07:35:04;33.80;41.10
1107;DHT22;540;49.448;8.612;2023-09-08T07:37:33;34.40;40.20
1107;DHT22;540;49.448;8.612;2023-09-08T07:40:02;34.20;39.80
1107;DHT22;540;49.448;8.612;2023-09-08T07:42:31;34.60;39.70
1107;DHT22;540;49.448;8.612;2023-09-08T07:44:59;35.00;39.10
1107;DHT22;540;49.448;8.612;2023-09-08T07:47:27;35.50;37.80
1107;DHT22;540;49.448;8.612;2023-09-08T07:50:16;35.00;37.10
1107;DHT22;540;49.448;8.612;2023-09-08T07:52:44;35.10;36.50
1107;DHT22;540;49.448;8.612;2023-09-08T07:55:13;35.40;36.50
1107;DHT22;540;49.448;8.612;2023-09-08T07:57:43;35.70;36.50
1107;DHT22;540;49.448;8.612;2023-09-08T08:00:14;36.10;35.10
1107;DHT22;540;49.448;8.612;2023-09-08T08:02:45;36.10;33.40
1107;DHT22;540;49.448;8.612;2023-09-08T08:05:15;35.90;33.60
1107;DHT22;540;49.448;8.612;2023-09-08T08:07:44;35.70;33.80
1107;DHT22;540;49.448;8.612;2023-09-08T08:10:13;35.90;34.00
1107;DHT22;540;49.448;8.612;2023-09-08T08:12:44;35.90;33.40
1107;DHT22;540;49.448;8.612;2023-09-08T08:15:13;35.90;33.70
1107;DHT22;540;49.448;8.612;2023-09-08T08:17:43;35.80;34.10
1107;DHT22;540;49.448;8.612;2023-09-08T08:20:12;36.10;33.50
1107;DHT22;540;49.448;8.612;2023-09-08T08:22:46;36.30;33.00
1107;DHT22;540;49.448;8.612;2023-09-08T08:25:15;36.30;32.90
1107;DHT22;540;49.448;8.612;2023-09-08T08:27:46;36.70;32.20
1107;DHT22;540;49.448;8.612;2023-09-08T08:30:14;36.40;32.50
1107;DHT22;540;49.448;8.612;2023-09-08T08:32:43;36.10;32.40
1107;DHT22;540;49.448;8.612;2023-09-08T08:35:12;36.00;32.50
1107;DHT22;540;49.448;8.612;2023-09-08T08:37:41;36.20;32.10
1107;DHT22;540;49.448;8.612;2023-09-08T08:40:10;36.50;31.50
1107;DHT22;540;49.448;8.612;2023-09-08T08:42:40;36.70;30.90
1107;DHT22;540;49.448;8.612;2023-09-08T08:45:10;36.70;30.70
1107;DHT22;540;49.448;8.612;2023-09-08T08:47:41;36.80;30.50
1107;DHT22;540;49.448;8.612;2023-09-08T08:50:11;36.30;30.90
1107;DHT22;540;49.448;8.612;2023-09-08T08:52:40;36.60;30.70
1107;DHT22;540;49.448;8.612;2023-09-08T08:55:08;36.70;29.90
1107;DHT22;540;49.448;8.612;2023-09-08T08:57:37;35.80;31.00
1107;DHT22;540;49.448;8.612;2023-09-08T09:00:07;35.90;31.60
1107;DHT22;540;49.448;8.612;2023-09-08T09:02:39;36.30;31.00
1107;DHT22;540;49.448;8.612;2023-09-08T09:05:09;36.60;31.00
1107;DHT22;540;49.448;8.612;2023-09-08T09:07:38;37.00;29.90
1107;DHT22;540;49.448;8.612;2023-09-08T09:10:08;36.70;30.00
1107;DHT22;540;49.448;8.612;2023-09-08T09:12:37;36.10;30.20
1107;DHT22;540;49.448;8.612;2023-09-08T09:15:07;36.30;30.10
1107;DHT22;540;49.448;8.612;2023-09-08T09:17:37;36.30;30.00
1107;DHT22;540;49.448;8.612;2023-09-08T09:20:13;36.20;30.30
1107;DHT22;540;49.448;8.612;2023-09-08T09:22:44;36.30;30.40
1107;DHT22;540;49.448;8.612;2023-09-08T09:25:21;36.70;30.10
1107;DHT22;540;49.448;8.612;2023-09-08T09:27:51;36.80;30.00
1107;DHT22;540;49.448;8.612;2023-09-08T09:30:20;36.70;30.20
1107;DHT22;540;49.448;8.612;2023-09-08T09:32:58;37.00;30.00
1107;DHT22;540;49.448;8.612;2023-09-08T09:35:40;37.40;29.90
1107;DHT22;540;49.448;8.612;2023-09-08T09:38:08;38.10;28.80
1107;DHT22;540;49.448;8.612;2023-09-08T09:40:37;37.90;29.00
1107;DHT22;540;49.448;8.612;2023-09-08T09:43:06;37.40;28.90
1107;DHT22;540;49.448;8.612;2023-09-08T09:45:35;37.20;29.80
1107;DHT22;540;49.448;8.612;2023-09-08T09:48:06;37.30;29.60
1107;DHT22;540;49.448;8.612;2023-09-08T09:50:36;37.40;29.60
1107;DHT22;540;49.448;8.612;2023-09-08T09:53:09;37.70;29.20
1107;DHT22;540;49.448;8.612;2023-09-08T09:55:38;37.80;28.60
1107;DHT22;540;49.448;8.612;2023-09-08T09:58:08;37.70;29.00
1107;DHT22;540;49.448;8.612;2023-09-08T10:00:38;37.10;29.80
1107;DHT22;540;49.448;8.612;2023-09-08T10:03:09;37.00;30.20
1107;DHT22;540;49.448;8.612;2023-09-08T10:05:38;37.30;30.10
1107;DHT22;540;49.448;8.612;2023-09-08T10:08:06;37.50;30.00
1107;DHT22;540;49.448;8.612;2023-09-08T10:10:34;37.30;29.90
1107;DHT22;540;49.448;8.612;2023-09-08T10:13:06;37.30;29.80
1107;DHT22;540;49.448;8.612;2023-09-08T10:15:34;37.20;29.80
1107;DHT22;540;49.448;8.612;2023-09-08T10:18:05;37.10;29.80
1107;DHT22;540;49.448;8.612;2023-09-08T10:20:37;37.10;29.70
1107;DHT22;540;49.448;8.612;2023-09-08T10:23:31;36.60;30.40
1107;DHT22;540;49.448;8.612;2023-09-08T10:26:03;36.70;30.90
1107;DHT22;540;49.448;8.612;2023-09-08T10:28:34;36.80;30.90
1107;DHT22;540;49.448;8.612;2023-09-08T10:31:04;37.30;30.80
1107;DHT22;540;49.448;8.612;2023-09-08T10:33:34;37.50;29.90
1107;DHT22;540;49.448;8.612;2023-09-08T10:36:05;37.10;30.10
1107;DHT22;540;49.448;8.612;2023-09-08T10:38:34;36.70;30.40
1107;DHT22;540;49.448;8.612;2023-09-08T10:41:26;36.80;30.50
1107;DHT22;540;49.448;8.612;2023-09-08T10:43:57;37.20;30.00
1107;DHT22;540;49.448;8.612;2023-09-08T10:46:27;37.20;30.10
1107;DHT22;540;49.448;8.612;2023-09-08T10:49:02;37.30;30.30
1107;DHT22;540;49.448;8.612;2023-09-08T10:51:32;37.40;30.30
1107;DHT22;540;49.448;8.612;2023-09-08T10:54:02;37.30;30.00
1107;DHT22;540;49.448;8.612;2023-09-08T10:56:48;37.30;30.20
1107;DHT22;540;49.448;8.612;2023-09-08T10:59:17;37.10;30.40
1107;DHT22;540;49.448;8.612;2023-09-08T11:01:47;37.40;29.90
1107;DHT22;540;49.448;8.612;2023-09-08T11:04:15;37.60;29.60
1107;DHT22;540;49.448;8.612;2023-09-08T11:06:49;37.30;29.90
1107;DHT22;540;49.448;8.612;2023-09-08T11:09:17;37.50;30.00
1107;DHT22;540;49.448;8.612;2023-09-08T11:11:45;37.10;30.20
1107;DHT22;540;49.448;8.612;2023-09-08T11:14:13;37.50;30.70
1107;DHT22;540;49.448;8.612;2023-09-08T11:16:43;37.40;29.90
1107;DHT22;540;49.448;8.612;2023-09-08T11:19:11;37.20;29.80
1107;DHT22;540;49.448;8.612;2023-09-08T11:21:39;37.20;29.90
1107;DHT22;540;49.448;8.612;2023-09-08T11:24:09;37.70;29.50
1107;DHT22;540;49.448;8.612;2023-09-08T11:26:46;37.20;29.70
1107;DHT22;540;49.448;8.612;2023-09-08T11:29:17;37.00;30.40
1107;DHT22;540;49.448;8.612;2023-09-08T11:31:51;37.00;30.30
1107;DHT22;540;49.448;8.612;2023-09-08T11:34:21;37.20;30.50
1107;DHT22;540;49.448;8.612;2023-09-08T11:36:50;37.50;30.00
1107;DHT22;540;49.448;8.612;2023-09-08T11:39:23;37.60;29.80
1107;DHT22;540;49.448;8.612;2023-09-08T11:41:51;37.50;29.90
1107;DHT22;540;49.448;8.612;2023-09-08T11:44:19;37.40;30.00
1107;DHT22;540;49.448;8.612;2023-09-08T11:46:47;37.60;30.10
1107;DHT22;540;49.448;8.612;2023-09-08T11:49:19;37.60;29.80
1107;DHT22;540;49.448;8.612;2023-09-08T11:51:47;37.50;30.00
1107;DHT22;540;49.448;8.612;2023-09-08T11:54:15;37.70;29.60
1107;DHT22;540;49.448;8.612;2023-09-08T11:56:45;37.40;30.10
1107;DHT22;540;49.448;8.612;2023-09-08T11:59:13;37.00;30.40
1107;DHT22;540;49.448;8.612;2023-09-08T12:01:42;36.50;30.90
1107;DHT22;540;49.448;8.612;2023-09-08T12:04:17;36.20;31.00
1107;DHT22;540;49.448;8.612;2023-09-08T12:06:47;36.20;30.70
1107;DHT22;540;49.448;8.612;2023-09-08T12:09:16;36.50;30.70
1107;DHT22;540;49.448;8.612;2023-09-08T12:11:45;36.40;30.30
1107;DHT22;540;49.448;8.612;2023-09-08T12:14:15;36.30;30.90
1107;DHT22;540;49.448;8.612;2023-09-08T12:16:43;36.50;30.80
1107;DHT22;540;49.448;8.612;2023-09-08T12:27:54;36.40;31.00
1107;DHT22;540;49.448;8.612;2023-09-08T12:30:23;36.70;30.80
1107;DHT22;540;49.448;8.612;2023-09-08T12:32:57;36.40;31.40
1107;DHT22;540;49.448;8.612;2023-09-08T12:35:26;36.50;31.70
1107;DHT22;540;49.448;8.612;2023-09-08T12:37:59;36.50;31.00
1107;DHT22;540;49.448;8.612;2023-09-08T12:40:28;36.30;30.90
1107;DHT22;540;49.448;8.612;2023-09-08T12:42:58;36.00;30.80
1107;DHT22;540;49.448;8.612;2023-09-08T12:45:46;35.90;31.20
1107;DHT22;540;49.448;8.612;2023-09-08T12:48:14;35.80;31.40
1107;DHT22;540;49.448;8.612;2023-09-08T12:50:42;35.50;31.60
1107;DHT22;540;49.448;8.612;2023-09-08T12:53:10;35.70;31.80
1107;DHT22;540;49.448;8.612;2023-09-08T12:55:38;35.30;32.00
1107;DHT22;540;49.448;8.612;2023-09-08T12:58:08;34.60;32.90
1107;DHT22;540;49.448;8.612;2023-09-08T13:00:36;34.60;33.60
1107;DHT22;540;49.448;8.612;2023-09-08T13:03:04;35.00;33.30
1107;DHT22;540;49.448;8.612;2023-09-08T13:05:32;35.30;32.90
1107;DHT22;540;49.448;8.612;2023-09-08T13:08:02;35.50;32.40
1107;DHT22;540;49.448;8.612;2023-09-08T13:10:29;35.40;32.10
1107;DHT22;540;49.448;8.612;2023-09-08T13:12:58;35.30;32.70
1107;DHT22;540;49.448;8.612;2023-09-08T13:15:27;35.30;32.70
1107;DHT22;540;49.448;8.612;2023-09-08T13:17:56;35.20;33.20
1107;DHT22;540;49.448;8.612;2023-09-08T13:20:24;35.10;33.90
1107;DHT22;540;49.448;8.612;2023-09-08T13:22:52;34.90;34.00
1107;DHT22;540;49.448;8.612;2023-09-08T13:25:20;34.60;34.20
1107;DHT22;540;49.448;8.612;2023-09-08T13:27:48;34.20;35.40
1107;DHT22;540;49.448;8.612;2023-09-08T13:30:17;34.30;35.20
1107;DHT22;540;49.448;8.612;2023-09-08T13:32:47;34.40;35.20
1107;DHT22;540;49.448;8.612;2023-09-08T13:35:15;34.40;34.90
1107;DHT22;540;49.448;8.612;2023-09-08T13:37:43;34.20;35.00
1107;DHT22;540;49.448;8.612;2023-09-08T13:40:11;33.90;35.60
1107;DHT22;540;49.448;8.612;2023-09-08T13:42:41;33.70;36.10
1107;DHT22;540;49.448;8.612;2023-09-08T13:45:09;33.30;37.00
1107;DHT22;540;49.448;8.612;2023-09-08T13:47:38;33.20;36.80
1107;DHT22;540;49.448;8.612;2023-09-08T13:50:09;33.30;37.10
1107;DHT22;540;49.448;8.612;2023-09-08T13:52:39;33.40;37.00
1107;DHT22;540;49.448;8.612;2023-09-08T13:55:09;33.50;37.10
1107;DHT22;540;49.448;8.612;2023-09-08T13:57:58;33.50;37.10
1107;DHT22;540;49.448;8.612;2023-09-08T14:00:28;33.40;37.10
1107;DHT22;540;49.448;8.612;2023-09-08T14:02:58;32.90;37.90
1107;DHT22;540;49.448;8.612;2023-09-08T14:05:34;32.60;38.90
1107;DHT22;540;49.448;8.612;2023-09-08T14:08:04;32.50;38.90
1107;DHT22;540;49.448;8.612;2023-09-08T14:10:43;32.40;39.20
1107;DHT22;540;49.448;8.612;2023-09-08T14:13:14;32.50;39.50
1107;DHT22;540;49.448;8.612;2023-09-08T14:15:43;32.60;39.50
1107;DHT22;540;49.448;8.612;2023-09-08T14:18:11;32.70;39.10
1107;DHT22;540;49.448;8.612;2023-09-08T14:20:42;32.80;38.70
1107;DHT22;540;49.448;8.612;2023-09-08T14:23:10;32.90;38.90
1107;DHT22;540;49.448;8.612;2023-09-08T14:25:38;32.90;38.60
1107;DHT22;540;49.448;8.612;2023-09-08T14:28:06;32.90;38.50
1107;DHT22;540;49.448;8.612;2023-09-08T14:30:34;33.00;38.40
1107;DHT22;540;49.448;8.612;2023-09-08T14:33:03;33.00;38.40
1107;DHT22;540;49.448;8.612;2023-09-08T14:35:32;33.10;38.50
1107;DHT22;540;49.448;8.612;2023-09-08T14:38:01;33.10;37.60
1107;DHT22;540;49.448;8.612;2023-09-08T14:40:30;32.70;38.00
1107;DHT22;540;49.448;8.612;2023-09-08T14:42:59;32.50;38.10
1107;DHT22;540;49.448;8.612;2023-09-08T14:45:27;32.40;38.50
1107;DHT22;540;49.448;8.612;2023-09-08T14:47:55;32.50;38.90
1107;DHT22;540;49.448;8.612;2023-09-08T14:50:26;32.50;39.80
1107;DHT22;540;49.448;8.612;2023-09-08T14:52:54;32.50;39.70
1107;DHT22;540;49.448;8.612;2023-09-08T14:55:24;32.50;39.70
1107;DHT22;540;49.448;8.612;2023-09-08T14:57:52;32.50;39.20
1107;DHT22;540;49.448;8.612;2023-09-08T15:00:21;32.60;38.60
1107;DHT22;540;49.448;8.612;2023-09-08T15:02:50;32.50;38.70
1107;DHT22;540;49.448;8.612;2023-09-08T15:05:18;32.60;38.80
1107;DHT22;540;49.448;8.612;2023-09-08T15:07:46;32.40;38.70
1107;DHT22;540;49.448;8.612;2023-09-08T15:10:14;32.30;39.00
1107;DHT22;540;49.448;8.612;2023-09-08T15:12:43;32.30;39.30
1107;DHT22;540;49.448;8.612;2023-09-08T15:15:11;32.20;39.70
1107;DHT22;540;49.448;8.612;2023-09-08T15:17:39;32.30;39.60
1107;DHT22;540;49.448;8.612;2023-09-08T15:20:08;32.10;39.90
1107;DHT22;540;49.448;8.612;2023-09-08T15:22:36;32.10;39.60
1107;DHT22;540;49.448;8.612;2023-09-08T15:25:05;32.10;39.50
1107;DHT22;540;49.448;8.612;2023-09-08T15:27:33;32.20;39.30
1107;DHT22;540;49.448;8.612;2023-09-08T15:30:05;32.00;40.30
1107;DHT22;540;49.448;8.612;2023-09-08T15:32:33;31.90;39.90
1107;DHT22;540;49.448;8.612;2023-09-08T15:35:01;31.80;40.80
1107;DHT22;540;49.448;8.612;2023-09-08T15:37:29;31.70;41.60
1107;DHT22;540;49.448;8.612;2023-09-08T15:39:57;31.60;41.90
1107;DHT22;540;49.448;8.612;2023-09-08T15:42:26;31.60;41.50
1107;DHT22;540;49.448;8.612;2023-09-08T15:44:55;31.60;40.90
1107;DHT22;540;49.448;8.612;2023-09-08T15:47:25;31.50;40.80
1107;DHT22;540;49.448;8.612;2023-09-08T15:49:53;31.50;41.00
1107;DHT22;540;49.448;8.612;2023-09-08T15:52:22;31.30;41.10
1107;DHT22;540;49.448;8.612;2023-09-08T15:54:50;31.30;41.60
1107;DHT22;540;49.448;8.612;2023-09-08T15:57:18;31.20;42.00
1107;DHT22;540;49.448;8.612;2023-09-08T15:59:46;31.10;41.90
1107;DHT22;540;49.448;8.612;2023-09-08T16:02:15;31.10;42.20
1107;DHT22;540;49.448;8.612;2023-09-08T16:04:44;31.10;42.30
1107;DHT22;540;49.448;8.612;2023-09-08T16:07:13;31.10;42.00
1107;DHT22;540;49.448;8.612;2023-09-08T16:09:40;31.10;41.60
1107;DHT22;540;49.448;8.612;2023-09-08T16:12:08;31.10;41.60
1107;DHT22;540;49.448;8.612;2023-09-08T16:14:37;31.00;42.30
1107;DHT22;540;49.448;8.612;2023-09-08T16:17:05;30.90;42.40
1107;DHT22;540;49.448;8.612;2023-09-08T16:19:34;30.90;42.30
1107;DHT22;540;49.448;8.612;2023-09-08T16:22:03;30.80;42.30
1107;DHT22;540;49.448;8.612;2023-09-08T16:24:33;30.80;42.60
1107;DHT22;540;49.448;8.612;2023-09-08T16:27:01;30.70;42.60
1107;DHT22;540;49.448;8.612;2023-09-08T16:29:30;30.70;42.50
1107;DHT22;540;49.448;8.612;2023-09-08T16:32:13;30.60;42.80
1107;DHT22;540;49.448;8.612;2023-09-08T16:34:41;30.50;43.60
1107;DHT22;540;49.448;8.612;2023-09-08T16:37:10;30.30;44.40
1107;DHT22;540;49.448;8.612;2023-09-08T16:39:38;30.10;45.20
1107;DHT22;540;49.448;8.612;2023-09-08T16:42:06;30.10;45.60